Aviation Digital Data Service (ADDS)

Output produced by METARs form (0534 UTC 26 February 2017)
found at http://aviationweather.gov/adds/metars/
 
KSLK 260522Z 2606/2706 25012G20KT P6SM SCT035 OVC050 
     TEMPO 2606/2610 OVC035 
     FM261000 25012G20KT P6SM OVC035 
     FM261400 25014G24KT P6SM BKN040 
     FM262300 24006KT P6SM BKN120 
     FM270200 22009KT P6SM BKN060